Некоторые различия в практике выпуска сводок METAR и SPECI и прогнозов TAF полномочными метеорологическими органами иностранных  государств.

 

Наставление по метеорологическому обеспечению гражданской авиации России  (НМО ГА-95) остается основным документом, определяющим организацию метеорологического обеспечения гражданской авиации. В него вошли основные нормативные положения, содержащиеся в Приложении 3 к Конвенции о международной гражданской авиации, в Техническом регламенте Всемирной метеорологической организации (ВМО) и указанные в  существующих на то время поправках. 

 Приложение 3 содержит Стандарты и Рекомендуемую практику, причем единообразное применение Стандартов признается необходимым для обеспечения безопасности или регулярности международной аэронавигации, в то время как единообразное применение Рекомендуемой практики признается желательным для обеспечения безопасности, регулярности или эффективности международной аэронавигации и которое будут стремиться соблюдать договаривающиеся государства. Содержащийся в Приложении 3 нормативный материал является, за некоторыми  незначительными  исключениями редакционного характера идентичным тому, что содержится в Техническом регламенте ВМО. 

 Стандарты и Рекомендуемая практика впервые были приняты в виде Приложения 3 к Конвенции  в 1948 году. Содержание Приложения 3 со временем изменялось через принятие поправок к нему. Всего на сегодняшний день было принято 74 поправки (последняя поправка 74 вступила в силу в июле 2007г ). Повышение статуса некоторых положений Рекомендуемой практики до уровня Стандарта осуществляется через поправки к Приложению 3. Поскольку положения Рекомендуемой практики выполняются не всеми государствами в силу различных причин (например, экономических, технических и др.), и что  допускается согласно определения статуса положений Рекомендуемой практики, кроме того существуют различия между национальными правилами и практикой и содержащимися в Приложении 3 стандартами и поправками к ним,  то  существуют различия   в практике выпуска сводок METAR, SPECI  и прогнозов TAF полномочными метеорологическими органами  различных государств. Целью данной работы является ознакомление оперативных синоптиков с различиями  между нашими национальными правилами и практикой и  Приложением 3 в части, касающейся метеорологических сводок и прогнозов.

 

Преобладающая видимость.

 

      1.С 2002 года в сводках METAR и SPECI, выпускаемых полномочными метеорологическими органами иностранных государств, а несколько позже и  некоторыми странами ближнего зарубежья,  указывается преобладающая видимость.

 Преобладающая видимость- наибольшее значение видимости, наблюдаемой в соответствии с определением термина ''видимость'', которое достигается в пределах по крайней мере половины линии горизонта либо в пределах по крайней мере половины поверхности аэродрома. Обозреваемое пространство может включать в себя смежные или несмежные секторы. Если видимость в различных направлениях неодинакова и а) если минимальная видимость отличается от преобладающей видимости и составляет 1) менее 1500 м или 2) менее 50% значения преобладающей видимости и менее 5000м, в сводках следует также указывать зарегистрированную минимальную видимость и ее общее направление относительно аэродрома с указанием одного из восьми направлений по компасу. Если минимальная видимость регистрируется в нескольких направлениях, то следует указывать наиболее важное с эксплуатационной точки зрения направление .

Пример1:

METAR EGLL 2500420Z 28002KT 4000 0300S R27L/P1500 PRFG NSC 13/12 Q1028=

- регулярная сводка по аэродрому Лондон: преобладающая видимость в сводке METAR 4000 метров с минимальной видимостью 300 метров в южном направлении; дальность видимости на ВПП в зоне приземления для ВПП 27 левой выше 1500 метров, туман, покрывающий часть аэродрома;

Пример2:

METAR EDDN 200020Z 00000KT 9999 2500E R28/0650V1500D BCFG NSC 18/17 Q1016=

- регулярная сводка по аэродрому Нюрнберг: преобладающая видимость в сводке METAR 10 км или более (9999) с минимальной видимостью 2500 метров в восточном направлении ,  дальность видимости на ВПП в зоне приземления  для  ВПП 28  изменяется (колеблется)  между 1500м и 650м и имеет тенденцию к уменьшению величин дальности видимости на ВПП (информация об изменение видимости в течение 10-минутного периода, непосредственно предшествующего наблюдению), туман клочьями (гряды тумана).  

 

b) в тех случаях, когда видимость изменяется быстро и определить преобладающую видимость невозможно, следует указывать только минимальные  значения видимости без указания направления .

Пример 2:

METAR EGLL 221630Z 24006KT 0600 R12/1000U DZ FG SCT010 OVC020 17/16 Q1018  BECMG AT 1800 9999 NSW

- регулярная сводка по аэродрому Лондон: преобладающая видимость в сводке METAR 600 метров, дальность видимости на ВПП в зоне приземления для ВПП12 1000 метров и имеет тенденцию к увеличению значения в течение 10 минут, предшествующих сроку наблюдения; морось, туман. 

 

 

Особенности сообщения данных, полученных от автоматических систем наблюдения.

 

1. В 2002 году введены положения, позволяющие использовать автоматические системы наблюдения. Согласно рекомендации ИКАО, cводки METAR и SPECI, получаемые от автоматических систем наблюдения, следует использовать тем государствам,  которые располагают соответствующими возможностями, когда аэродром не работает, а также в часы работы аэродрома, как определено метеорологическим органом в консультации с пользователями и с учетом факторов наличия и эффективного использования персонала.

Сводки METAR и SPECI, получаемые от автоматических систем наблюдения, обозначаются словом AUTO.

 

2. В автоматизированных сводках METAR и SPECI в том случае, когда датчики видимости размещены таким образом , что изменения по направлению дать невозможно, за сообщением видимости указывается сокращение NDV;

NDV-no directional variation - нет изменений по направлению (видимость в одну сторону).

Пример 3:

METAR EGLC 150350Z AUTO VRB03KT 3600NDV BR BKN016/// 12/11 Q1014=

 

3. В автоматизированных сводках METAR и SPECI, когда автоматическая система наблюдения не может определить тип осадков,   используется сокращение UP;

UP-unidentified precipitation- неидентифицированные осадки.

Это же сокращение используется в группе ''Дополнительная информация'' автоматизированных сводок METAR и SPECI для сообщения о недавних неидентифицированных осадках, то есть когда автоматическая система не может определить тип осадков (REUP). 

Пример 5:

METAR CYYL 230000Z AUTO 15005KT 9SM -UP VV010 01/00 A2969 RMK SLP069

- автоматизированная регулярная сводка по аэродрому Линн Лейк: видимость 9 ст. миль, слабые осадки, тип не определен .

 

4. В тех случаях, когда тип облаков невозможно наблюдать с помощью автоматических систем наблюдения, сведения о типе облаков в каждой группе облачности заменяются знаком  ///.

Пример 6 :

METAR EGLL 140020Z AUTO VRB03KT 6000NDV OVC017/// 13/10 Q1023=

- автоматизированная регулярная сводка по аэродрому Лондон: в группе облачности (OVC017) информация о типе облаков заменена знаком /// .

 

5. Когда автоматическая система наблюдения не обнаруживает облаков, используется сокращение NCD;

NCD- no clouds- нет облаков.

Пример 8 :

METAR EGPB 150350 AUTO 18007KT 7000NDV NCD 10/10 Q1006=

 

6. Когда кучево-дождевые и мощно-кучевые облака обнаружены автоматической системой наблюдения, а количество облаков и высоту нижней границы облаков невозможно определить, сведения о количестве облаков и высоте нижней границы облаков заменяются знаком  //////.  

Пример 9 :

METAR EHGG 020755Z AUTO 21006KT 9999 //////CB 20/18 Q1003=

 

Прогноз температуры.

 

Согласно рекомендации Приложения 3 ИКАО, в том случае, если в соответствии с региональным аэронавигационным соглашением в прогнозы TAF включаются прогнозируемые температуры, следует указывать максимальные и минимальные температуры, ожидаемые в период действия TAF, а также соответствующее время  их достижения.

Группа прогноза максимальной температуры имеет следующий вид:

TXnn/nnZ

где TX-буквенный указатель группы максимальной температуры воздуха

 (T-Temperature; X-maXimum);

nn-значение температуры;

nnZ-время, на которое дается прогноз.

Группа прогноза минимальной температуры имеет следующий вид:

TNnn/nnZ

где TN-буквенный указатель группы минимальной температуры воздуха

(T-Temperature; N-miNimum);

nn-значение температуры;

nnZ-время, на которое дается прогноз.

Пример10.

TAF LFPG 310800Z 310918 01005KT CAVOK TX13/15Z TN07/09Z

 

 

20.11.2007г.